Time;durP1;ratioP1;P1;durP2;ratioP2;P2;SDS_P1;SDS_P2;PMS_P1;PMS_P2;Temp;Humidity;BMP_temperature;BMP_pressure;BME280_temperature;BME280_humidity;BME280_pressure;Samples;Min_cycle;Max_cycle;Signal;HPM_P1;HPM_P2
2023/04/23 00:00:05;;;;;;;113.90;56.72;;;;;;;10.10;100.00;100741.31;5029714;28;20132;-71
2023/04/23 00:02:38;;;;;;;108.90;53.88;;;;;;;10.13;100.00;100736.63;5023040;28;20049;-71
2023/04/23 00:05:05;;;;;;;107.50;54.80;;;;;;;10.09;100.00;100732.47;5018785;28;20033;-72
2023/04/23 00:07:32;;;;;;;112.53;55.83;;;;;;;10.02;100.00;100730.28;5014417;28;20167;-71
2023/04/23 00:09:59;;;;;;;128.05;59.30;;;;;;;10.03;100.00;100732.84;5025498;28;20199;-72
2023/04/23 00:12:26;;;;;;;100.72;51.22;;;;;;;9.99;100.00;100733.13;5026039;28;20033;-72
2023/04/23 00:14:52;;;;;;;117.82;56.38;;;;;;;9.95;100.00;100736.97;5026422;28;20132;-71
2023/04/23 00:17:18;;;;;;;129.02;58.70;;;;;;;9.94;100.00;100728.13;5018272;28;20042;-71
2023/04/23 00:19:44;;;;;;;112.97;55.08;;;;;;;9.93;100.00;100726.38;5021172;28;20964;-72
2023/04/23 00:22:09;;;;;;;116.07;54.50;;;;;;;9.94;100.00;100728.13;5020043;28;20041;-72
2023/04/23 00:24:37;;;;;;;115.78;54.75;;;;;;;9.98;100.00;100723.44;5027622;28;20502;-71
2023/04/23 00:27:03;;;;;;;126.15;56.50;;;;;;;9.88;100.00;100724.97;5028202;28;20088;-72
2023/04/23 00:29:29;;;;;;;121.72;56.13;;;;;;;9.91;100.00;100725.63;5007323;28;20087;-72
2023/04/23 00:31:54;;;;;;;132.30;57.88;;;;;;;9.93;100.00;100728.19;5027690;28;20049;-71
2023/04/23 00:34:20;;;;;;;122.80;57.65;;;;;;;9.85;100.00;100729.53;5022843;28;20048;-71
2023/04/23 00:36:45;;;;;;;122.22;56.97;;;;;;;9.68;100.00;100716.38;5002603;28;20052;-72
2023/04/23 00:39:11;;;;;;;118.57;54.53;;;;;;;9.74;100.00;100716.03;5030386;28;20037;-71
2023/04/23 00:41:36;;;;;;;120.68;55.58;;;;;;;9.74;100.00;100712.50;5022496;28;20804;-72
2023/04/23 00:44:02;;;;;;;111.53;51.95;;;;;;;9.77;100.00;100710.50;5013547;28;20084;-72
2023/04/23 00:46:28;;;;;;;125.38;59.38;;;;;;;9.79;100.00;100713.09;5023495;28;20054;-72
2023/04/23 00:48:54;;;;;;;151.13;60.72;;;;;;;9.82;100.00;100711.06;5004473;28;20036;-72
2023/04/23 00:51:23;;;;;;;138.13;58.92;;;;;;;9.74;100.00;100715.16;5027317;28;20219;-72
2023/04/23 00:53:49;;;;;;;137.38;62.47;;;;;;;9.75;100.00;100714.22;5021832;28;20397;-71
2023/04/23 00:56:16;;;;;;;127.38;58.47;;;;;;;9.70;100.00;100709.19;5030274;28;20151;-71
2023/04/23 00:58:42;;;;;;;132.40;58.72;;;;;;;9.70;100.00;100701.19;5013357;28;20078;-72
2023/04/23 01:01:08;;;;;;;125.63;55.25;;;;;;;9.72;100.00;100707.28;5010569;28;20107;-71
2023/04/23 01:03:37;;;;;;;122.60;57.60;;;;;;;9.69;100.00;100703.94;5023826;28;20034;-71
2023/04/23 01:06:03;;;;;;;114.75;51.70;;;;;;;9.61;100.00;100701.75;5022533;28;20481;-72
2023/04/23 01:08:30;;;;;;;115.32;51.97;;;;;;;9.58;100.00;100697.47;5015492;28;20052;-71
2023/04/23 01:10:57;;;;;;;111.18;51.95;;;;;;;9.54;100.00;100693.31;5021780;28;20088;-72
2023/04/23 01:13:25;;;;;;;106.07;49.50;;;;;;;9.50;100.00;100698.91;5025595;28;20033;-72
2023/04/23 01:15:51;;;;;;;113.22;51.58;;;;;;;9.49;100.00;100706.03;5011029;28;20049;-72
2023/04/23 01:18:18;;;;;;;116.97;53.50;;;;;;;9.40;100.00;100687.97;5028847;28;20037;-72
2023/04/23 01:20:44;;;;;;;122.97;54.80;;;;;;;9.38;100.00;100695.16;5032026;28;20033;-71
2023/04/23 01:23:10;;;;;;;115.78;50.85;;;;;;;9.29;100.00;100687.78;5022582;28;20096;-72
2023/04/23 01:25:36;;;;;;;114.22;52.88;;;;;;;9.33;100.00;100682.13;5019260;28;20933;-72
2023/04/23 01:28:03;;;;;;;106.53;49.47;;;;;;;9.31;100.00;100685.84;5031681;28;20029;-71
2023/04/23 01:30:29;;;;;;;111.57;50.90;;;;;;;9.26;100.00;100682.63;5010427;28;20034;-72
2023/04/23 01:32:55;;;;;;;119.65;53.95;;;;;;;9.20;100.00;100680.34;5023857;28;20108;-72
2023/04/23 01:35:22;;;;;;;140.45;57.10;;;;;;;9.22;100.00;100686.41;5012096;28;20879;-72
2023/04/23 01:37:50;;;;;;;117.55;52.10;;;;;;;9.14;100.00;100676.25;5020927;28;20046;-71
2023/04/23 01:40:18;;;;;;;128.63;53.20;;;;;;;9.16;100.00;100682.31;5023985;28;20917;-72
2023/04/23 01:42:44;;;;;;;132.95;56.92;;;;;;;9.20;100.00;100681.19;5024373;28;20765;-71
2023/04/23 01:45:11;;;;;;;141.00;56.95;;;;;;;9.23;100.00;100672.16;5004322;28;20052;-71
2023/04/23 01:47:36;;;;;;;140.15;54.58;;;;;;;9.16;100.00;100663.69;5011286;28;20033;-71
2023/04/23 01:50:04;;;;;;;123.75;50.58;;;;;;;9.27;100.00;100661.22;5012441;28;20038;-72
2023/04/23 01:52:29;;;;;;;118.95;51.70;;;;;;;9.31;100.00;100659.25;5009075;28;20033;-71
2023/04/23 01:54:55;;;;;;;136.38;53.90;;;;;;;9.36;100.00;100657.16;5018300;28;20706;-72
2023/04/23 01:57:25;;;;;;;115.68;49.92;;;;;;;9.48;100.00;100661.72;4987594;28;20041;-72
2023/04/23 01:59:57;;;;;;;129.38;53.55;;;;;;;9.54;100.00;100655.19;5021845;28;20041;-72
2023/04/23 02:02:24;;;;;;;110.13;47.25;;;;;;;9.55;100.00;100659.56;5018970;28;20030;-72
2023/04/23 02:04:52;;;;;;;113.13;50.10;;;;;;;9.58;100.00;100657.53;5012919;28;20048;-72
2023/04/23 02:07:17;;;;;;;124.55;51.03;;;;;;;9.54;100.00;100656.03;5011996;28;20963;-71
2023/04/23 02:09:43;;;;;;;130.75;53.85;;;;;;;9.59;100.00;100651.28;5021587;28;20030;-72
2023/04/23 02:12:08;;;;;;;130.73;58.20;;;;;;;9.46;100.00;100657.47;4997323;28;20068;-72
2023/04/23 02:14:34;;;;;;;132.68;56.15;;;;;;;9.35;100.00;100655.47;5012393;28;20045;-72
2023/04/23 02:16:59;;;;;;;136.23;59.70;;;;;;;9.29;100.00;100658.50;5017044;28;20045;-72
2023/04/23 02:19:25;;;;;;;140.13;58.38;;;;;;;9.26;100.00;100651.53;5014217;28;20065;-71
2023/04/23 02:21:50;;;;;;;138.52;59.47;;;;;;;9.07;100.00;100650.94;5030726;28;20057;-72
2023/04/23 02:24:16;;;;;;;145.80;59.47;;;;;;;8.89;100.00;100649.41;4999279;28;20042;-71
2023/04/23 02:26:42;;;;;;;149.40;61.20;;;;;;;8.89;100.00;100647.59;5022600;28;20040;-72
2023/04/23 02:29:07;;;;;;;149.70;61.92;;;;;;;8.96;100.00;100646.28;5011064;28;20038;-72
2023/04/23 02:31:33;;;;;;;140.60;57.92;;;;;;;9.08;100.00;100652.66;5017263;28;20943;-72
2023/04/23 02:33:58;;;;;;;161.05;59.63;;;;;;;9.11;100.00;100648.97;5031403;28;20045;-71
2023/04/23 02:36:24;;;;;;;128.73;54.13;;;;;;;9.03;100.00;100644.09;5029406;28;20041;-71
2023/04/23 02:38:50;;;;;;;145.48;57.35;;;;;;;8.92;100.00;100643.88;5026669;28;20542;-71
2023/04/23 02:41:15;;;;;;;161.60;61.45;;;;;;;8.77;100.00;100643.00;5008193;28;20029;-72
2023/04/23 02:43:41;;;;;;;149.00;58.42;;;;;;;8.96;100.00;100646.28;5024366;28;20030;-71
2023/04/23 02:46:07;;;;;;;137.65;56.97;;;;;;;9.23;100.00;100646.41;5021162;28;20034;-71
2023/04/23 02:48:40;;;;;;;133.25;52.85;;;;;;;9.32;100.00;100640.53;5011277;28;20136;-71
2023/04/23 02:51:08;;;;;;;123.60;52.67;;;;;;;9.36;100.00;100635.88;5013537;28;20033;-72
2023/04/23 02:53:33;;;;;;;136.32;57.30;;;;;;;9.36;100.00;100638.53;5020270;28;20109;-71
2023/04/23 02:56:00;;;;;;;122.13;54.97;;;;;;;9.46;100.00;100641.50;5006840;28;20042;-72
2023/04/23 02:58:25;;;;;;;144.90;58.38;;;;;;;9.44;100.00;100638.03;5008480;28;20056;-71
2023/04/23 03:00:54;;;;;;;140.25;58.70;;;;;;;9.34;100.00;100635.97;5010747;28;20132;-72
2023/04/23 03:03:20;;;;;;;147.73;57.47;;;;;;;9.50;100.00;100640.34;5024180;28;21086;-71
2023/04/23 03:05:45;;;;;;;132.18;59.25;;;;;;;9.50;100.00;100633.22;5023920;28;20113;-72
2023/04/23 03:08:11;;;;;;;129.60;54.28;;;;;;;9.53;100.00;100634.81;5020184;28;20866;-72
2023/04/23 03:10:36;;;;;;;142.05;56.90;;;;;;;9.45;100.00;100629.13;5011917;28;20049;-71
2023/04/23 03:13:03;;;;;;;132.95;56.45;;;;;;;9.40;100.00;100637.41;5011298;28;20038;-71
2023/04/23 03:15:29;;;;;;;142.40;57.38;;;;;;;9.34;100.00;100629.81;5009470;28;20031;-72
2023/04/23 03:17:55;;;;;;;152.55;60.70;;;;;;;9.37;100.00;100626.94;5003356;28;20119;-71
2023/04/23 03:20:20;;;;;;;143.85;58.67;;;;;;;9.48;100.00;100619.13;5005330;28;20026;-71
2023/04/23 03:22:46;;;;;;;134.65;57.33;;;;;;;9.37;100.00;100624.28;5009343;28;20033;-72
2023/04/23 03:25:12;;;;;;;140.40;57.45;;;;;;;9.05;100.00;100612.97;5013229;28;20030;-70
2023/04/23 03:27:41;;;;;;;143.27;59.92;;;;;;;9.02;100.00;100626.44;5007811;28;20423;-70
2023/04/23 03:30:08;;;;;;;148.65;57.40;;;;;;;9.06;100.00;100619.97;5025505;28;20044;-70
2023/04/23 03:32:35;;;;;;;156.73;60.72;;;;;;;8.94;100.00;100624.25;5008625;28;20041;-70
2023/04/23 03:35:01;;;;;;;150.00;60.05;;;;;;;9.01;100.00;100624.72;5016863;28;20057;-70
2023/04/23 03:37:26;;;;;;;141.18;56.38;;;;;;;8.89;100.00;100617.50;4977332;28;20034;-70
2023/04/23 03:39:52;;;;;;;173.73;65.32;;;;;;;8.78;100.00;100628.75;4993555;28;20108;-70
2023/04/23 03:42:18;;;;;;;161.35;60.75;;;;;;;8.64;100.00;100628.72;5009121;28;20108;-70
2023/04/23 03:44:44;;;;;;;160.52;60.42;;;;;;;8.67;100.00;100626.72;5022158;28;20034;-70
2023/04/23 03:47:09;;;;;;;168.38;63.88;;;;;;;8.68;100.00;100623.13;5019717;28;20060;-70
2023/04/23 03:49:37;;;;;;;176.50;61.15;;;;;;;8.68;100.00;100624.91;5007089;28;20495;-70
2023/04/23 03:52:03;;;;;;;162.77;61.20;;;;;;;8.61;100.00;100627.09;5022009;28;20037;-71
2023/04/23 03:54:29;;;;;;;149.32;56.95;;;;;;;8.60;100.00;100619.22;5010917;28;20129;-71
2023/04/23 03:57:13;;;;;;;145.73;58.95;;;;;;;8.64;100.00;100616.28;5009632;28;20041;-72
2023/04/23 04:00:11;;;;;;;153.48;58.80;;;;;;;8.68;100.00;100619.59;5003570;28;20049;-72
2023/04/23 04:02:40;;;;;;;172.77;62.40;;;;;;;8.47;100.00;100616.41;5006170;28;20132;-73
2023/04/23 04:05:06;;;;;;;181.18;63.15;;;;;;;8.66;100.00;100617.03;5017284;28;20034;-72
2023/04/23 04:07:32;;;;;;;127.15;53.88;;;;;;;8.70;100.00;100613.25;5012243;28;20026;-72
2023/04/23 04:09:58;;;;;;;147.10;59.17;;;;;;;8.68;100.00;100611.63;5021674;28;20037;-72
2023/04/23 04:12:24;;;;;;;158.95;58.58;;;;;;;8.59;100.00;100607.75;4997603;28;20060;-69
2023/04/23 04:14:50;;;;;;;129.73;53.70;;;;;;;8.69;100.00;100610.72;5005139;28;20042;-69
2023/04/23 04:17:15;;;;;;;150.18;58.53;;;;;;;8.60;100.00;100611.25;4997000;28;20041;-72
2023/04/23 04:19:42;;;;;;;144.55;55.83;;;;;;;8.75;100.00;100618.31;5028331;28;20037;-72
2023/04/23 04:22:08;;;;;;;143.75;57.45;;;;;;;8.85;100.00;100610.66;5025100;28;20668;-71
2023/04/23 04:24:34;;;;;;;140.77;56.38;;;;;;;8.92;100.00;100612.81;5027800;28;20033;-72
2023/04/23 04:27:00;;;;;;;146.60;58.45;;;;;;;9.10;100.00;100615.34;5026945;28;20123;-72
2023/04/23 04:29:26;;;;;;;140.00;57.47;;;;;;;9.15;100.00;100616.78;5027923;28;21183;-72
2023/04/23 04:31:55;;;;;;;121.95;53.13;;;;;;;9.30;100.00;100615.81;5012989;28;20041;-72
2023/04/23 04:34:20;;;;;;;119.18;52.38;;;;;;;9.25;100.00;100604.59;5001977;28;20046;-72
2023/04/23 04:36:46;;;;;;;128.63;53.25;;;;;;;9.26;100.00;100611.63;5027605;28;20033;-69
2023/04/23 04:39:13;;;;;;;142.02;55.05;;;;;;;9.32;100.00;100599.75;5009531;28;20495;-70
2023/04/23 04:41:40;;;;;;;112.78;49.80;;;;;;;9.44;100.00;100601.66;5018039;28;20037;-72
2023/04/23 04:44:09;;;;;;;132.32;51.60;;;;;;;9.43;100.00;100613.25;5015053;28;20041;-72
2023/04/23 04:46:39;;;;;;;98.65;46.38;;;;;;;9.49;100.00;100606.72;5024460;28;20037;-72
2023/04/23 04:49:08;;;;;;;113.78;48.58;;;;;;;9.50;100.00;100600.44;5028731;28;20072;-71
2023/04/23 04:51:37;;;;;;;109.45;50.97;;;;;;;9.60;100.00;100609.53;5025758;28;20042;-72
2023/04/23 04:54:02;;;;;;;113.55;51.30;;;;;;;9.87;100.00;100609.59;5025089;28;20038;-71
2023/04/23 04:56:28;;;;;;;102.85;46.78;;;;;;;10.16;100.00;100606.84;5023263;28;20100;-72
2023/04/23 04:58:54;;;;;;;109.75;48.70;;;;;;;10.21;100.00;100610.06;5030545;28;20037;-71
2023/04/23 05:01:23;;;;;;;111.88;49.83;;;;;;;10.16;100.00;100609.50;5022068;28;20115;-71
2023/04/23 05:03:49;;;;;;;104.78;48.10;;;;;;;10.02;100.00;100611.25;5019307;28;20030;-72
2023/04/23 05:06:14;;;;;;;100.18;47.97;;;;;;;10.18;100.00;100611.09;5017937;28;20025;-72
2023/04/23 05:08:41;;;;;;;106.20;49.92;;;;;;;10.61;100.00;100605.63;5024232;28;20682;-72
2023/04/23 05:11:07;;;;;;;87.78;43.78;;;;;;;11.04;100.00;100605.38;5030096;28;20042;-71
2023/04/23 05:13:32;;;;;;;99.22;45.92;;;;;;;11.11;100.00;100598.66;5013438;28;20026;-72
2023/04/23 05:15:58;;;;;;;92.78;45.97;;;;;;;10.80;100.00;100600.78;5027021;28;20042;-72
2023/04/23 05:18:24;;;;;;;89.13;43.47;;;;;;;10.76;100.00;100604.59;5029358;28;20150;-72
2023/04/23 05:20:49;;;;;;;89.32;44.88;;;;;;;10.71;100.00;100603.22;5013948;28;20042;-72
2023/04/23 05:23:15;;;;;;;74.70;39.30;;;;;;;10.59;100.00;100602.19;5018993;28;20092;-70
2023/04/23 05:25:40;;;;;;;82.22;42.03;;;;;;;10.44;100.00;100608.56;5017650;28;20038;-71
2023/04/23 05:28:07;;;;;;;86.80;41.67;;;;;;;10.55;100.00;100606.91;5010923;28;20045;-72
2023/04/23 05:30:33;;;;;;;79.63;42.05;;;;;;;10.48;100.00;100605.59;5024219;28;20033;-71
2023/04/23 05:32:58;;;;;;;88.90;44.40;;;;;;;10.55;100.00;100609.56;5012287;28;20037;-73
2023/04/23 05:35:24;;;;;;;80.63;43.58;;;;;;;10.34;100.00;100611.88;5022710;28;20046;-72
2023/04/23 05:37:50;;;;;;;74.03;39.10;;;;;;;10.45;100.00;100605.81;5022642;28;20037;-72
2023/04/23 05:40:15;;;;;;;89.35;45.28;;;;;;;10.43;100.00;100613.03;5013002;28;20649;-72
2023/04/23 05:42:41;;;;;;;84.05;43.10;;;;;;;10.54;100.00;100613.22;5022094;28;20107;-72
2023/04/23 05:45:07;;;;;;;83.35;41.05;;;;;;;10.68;100.00;100603.41;5007660;28;20322;-72
2023/04/23 05:47:33;;;;;;;80.15;41.55;;;;;;;10.73;100.00;100601.28;5028801;28;20064;-72
2023/04/23 05:50:00;;;;;;;85.65;42.72;;;;;;;10.85;100.00;100613.81;5016400;28;20104;-72
2023/04/23 05:52:25;;;;;;;80.05;41.85;;;;;;;10.84;100.00;100618.28;5025935;28;20613;-71
2023/04/23 05:54:51;;;;;;;80.20;41.85;;;;;;;10.78;100.00;100604.50;5017811;28;20100;-72
2023/04/23 05:57:16;;;;;;;84.03;42.97;;;;;;;10.81;100.00;100609.63;5015227;28;20041;-72
2023/04/23 05:59:42;;;;;;;82.68;41.55;;;;;;;10.84;100.00;100606.72;5012092;28;20045;-72
2023/04/23 06:02:09;;;;;;;81.45;42.63;;;;;;;10.93;100.00;100606.09;5022355;28;20037;-72
2023/04/23 06:04:35;;;;;;;72.90;39.28;;;;;;;10.93;100.00;100608.78;5018892;28;20033;-72
2023/04/23 06:07:01;;;;;;;73.15;40.05;;;;;;;10.95;100.00;100604.22;5000093;28;20543;-72
2023/04/23 06:09:26;;;;;;;77.88;40.65;;;;;;;10.96;100.00;100608.56;5019654;28;20034;-72
2023/04/23 06:11:52;;;;;;;78.13;41.15;;;;;;;11.08;100.00;100609.53;5017059;28;20041;-70
2023/04/23 06:14:18;;;;;;;71.90;39.47;;;;;;;11.38;100.00;100611.88;5010365;28;20038;-72
2023/04/23 06:16:44;;;;;;;74.57;39.35;;;;;;;11.65;100.00;100609.09;5027617;28;20041;-72
2023/04/23 06:19:10;;;;;;;65.07;36.58;;;;;;;12.03;100.00;100589.44;5018887;28;20037;-72
2023/04/23 06:21:36;;;;;;;60.85;35.17;;;;;;;12.69;100.00;100596.03;5002444;28;20025;-72
2023/04/23 06:24:01;;;;;;;58.92;34.60;;;;;;;13.21;100.00;100581.31;5003828;28;20031;-70
2023/04/23 06:26:27;;;;;;;48.35;32.28;;;;;;;13.56;100.00;100575.03;5026002;28;20579;-72
2023/04/23 06:28:56;;;;;;;50.30;31.95;;;;;;;13.66;100.00;100576.00;5011073;28;20113;-72
2023/04/23 06:31:35;;;;;;;43.90;30.50;;;;;;;14.17;100.00;100570.03;5008456;28;20034;-72
2023/04/23 06:34:01;;;;;;;43.97;28.38;;;;;;;14.07;100.00;100545.81;5021197;28;20724;-72
2023/04/23 06:36:26;;;;;;;42.67;28.23;;;;;;;14.48;100.00;100547.72;5016085;28;20045;-72
2023/04/23 06:38:52;;;;;;;39.15;26.27;;;;;;;14.65;100.00;100559.72;5000249;28;20041;-70
2023/04/23 06:41:18;;;;;;;36.58;25.35;;;;;;;14.90;100.00;100554.94;5023505;28;20104;-72
2023/04/23 06:43:44;;;;;;;32.63;23.30;;;;;;;15.00;100.00;100556.69;5016001;28;20042;-72
2023/04/23 06:46:25;;;;;;;30.60;22.80;;;;;;;14.90;100.00;100552.25;5009229;28;20064;-72
2023/04/23 06:48:50;;;;;;;33.38;22.95;;;;;;;14.75;100.00;100554.41;5019213;28;20048;-70
2023/04/23 06:51:16;;;;;;;34.35;21.98;;;;;;;14.66;100.00;100552.50;5028680;28;20537;-72
2023/04/23 06:53:41;;;;;;;30.73;23.02;;;;;;;15.35;100.00;100542.00;5027442;28;20844;-72
2023/04/23 06:56:07;;;;;;;31.23;22.98;;;;;;;15.41;100.00;100537.94;5024358;28;20071;-72
2023/04/23 06:58:33;;;;;;;30.17;22.35;;;;;;;15.46;100.00;100541.06;5027625;28;20221;-72
2023/04/23 07:01:06;;;;;;;30.05;21.35;;;;;;;15.43;100.00;100542.19;5006718;28;20474;-70
2023/04/23 07:03:32;;;;;;;29.38;20.48;;;;;;;15.48;100.00;100542.63;5006989;28;20029;-72
2023/04/23 07:05:58;;;;;;;29.08;20.77;;;;;;;15.50;100.00;100537.13;5021819;28;20400;-73
2023/04/23 07:08:24;;;;;;;26.48;19.85;;;;;;;15.46;100.00;100533.88;5022082;28;20034;-70
2023/04/23 07:10:50;;;;;;;27.25;19.63;;;;;;;15.61;100.00;100528.94;5019456;28;20129;-70
2023/04/23 07:13:16;;;;;;;28.67;20.55;;;;;;;15.44;100.00;100527.78;5026865;28;20042;-72
2023/04/23 07:15:42;;;;;;;27.42;21.10;;;;;;;15.70;100.00;100530.84;5021465;28;20029;-72
2023/04/23 07:18:08;;;;;;;27.27;19.17;;;;;;;15.67;100.00;100530.28;5022160;28;20050;-70
2023/04/23 07:20:34;;;;;;;24.83;19.35;;;;;;;15.73;100.00;100535.09;5019077;28;20030;-70
2023/04/23 07:23:00;;;;;;;26.75;19.38;;;;;;;15.64;100.00;100517.09;5018828;28;20061;-70
2023/04/23 07:25:26;;;;;;;24.70;17.95;;;;;;;15.81;100.00;100519.13;5015993;28;20250;-70
2023/04/23 07:27:55;;;;;;;27.00;20.23;;;;;;;15.77;100.00;100512.34;5018246;28;20374;-72
2023/04/23 07:30:38;;;;;;;24.17;17.85;;;;;;;16.15;100.00;100510.66;5005533;28;20156;-70
2023/04/23 07:33:03;;;;;;;24.00;18.40;;;;;;;15.98;100.00;100513.06;4997259;28;20034;-71
2023/04/23 07:35:29;;;;;;;23.33;17.33;;;;;;;16.07;100.00;100507.84;5012210;28;20825;-71
2023/04/23 07:37:56;;;;;;;23.88;18.45;;;;;;;16.05;100.00;100505.28;5003742;28;20040;-70
2023/04/23 07:40:23;;;;;;;28.13;18.73;;;;;;;16.35;100.00;100508.81;5010675;28;20860;-72
2023/04/23 07:42:50;;;;;;;28.08;19.55;;;;;;;16.36;100.00;100508.66;5014937;28;20120;-72
2023/04/23 07:45:17;;;;;;;24.35;17.75;;;;;;;16.58;100.00;100511.06;5002800;28;20196;-72
2023/04/23 07:47:42;;;;;;;30.27;17.77;;;;;;;16.64;100.00;100506.94;5025049;28;20456;-72
2023/04/23 07:50:08;;;;;;;29.10;18.17;;;;;;;16.85;100.00;100509.47;5003997;28;20033;-72
2023/04/23 07:52:34;;;;;;;24.20;16.90;;;;;;;16.87;100.00;100502.13;5012161;28;20033;-72
2023/04/23 07:55:01;;;;;;;23.08;17.67;;;;;;;16.82;100.00;100502.56;5028139;28;20037;-71
2023/04/23 07:57:26;;;;;;;20.30;15.43;;;;;;;16.52;100.00;100503.56;5029677;28;20037;-71
2023/04/23 07:59:52;;;;;;;23.13;15.45;;;;;;;17.29;100.00;100505.22;4999623;28;20687;-72
2023/04/23 08:02:22;;;;;;;20.77;15.55;;;;;;;16.80;100.00;100511.75;5027340;28;20108;-71
2023/04/23 08:04:48;;;;;;;26.40;15.95;;;;;;;16.81;100.00;100506.22;5020877;28;20715;-72
2023/04/23 08:07:14;;;;;;;20.08;15.50;;;;;;;17.14;100.00;100513.94;5025598;28;20034;-72
2023/04/23 08:09:39;;;;;;;19.00;14.88;;;;;;;17.23;100.00;100502.28;4993774;28;20051;-73
2023/04/23 08:12:05;;;;;;;20.63;14.60;;;;;;;17.06;100.00;100493.09;5025731;28;20060;-71
2023/04/23 08:14:30;;;;;;;24.45;14.80;;;;;;;16.91;100.00;100499.97;5027495;28;20840;-72
2023/04/23 08:16:56;;;;;;;20.15;14.98;;;;;;;16.79;100.00;100492.06;5005841;28;20056;-72
2023/04/23 08:19:22;;;;;;;22.33;14.23;;;;;;;16.97;100.00;100499.41;5011227;28;20042;-72
2023/04/23 08:21:48;;;;;;;19.98;13.23;;;;;;;16.88;100.00;100492.19;5001829;28;20041;-71
2023/04/23 08:24:13;;;;;;;17.77;12.52;;;;;;;17.24;100.00;100495.88;5018299;28;20045;-72
2023/04/23 08:26:39;;;;;;;21.58;12.98;;;;;;;17.19;100.00;100488.22;5021839;28;20466;-71
2023/04/23 08:29:04;;;;;;;22.02;14.02;;;;;;;17.41;100.00;100484.28;5024121;28;20378;-71
2023/04/23 08:31:30;;;;;;;18.40;13.02;;;;;;;17.67;100.00;100480.88;4985962;28;20753;-71
2023/04/23 08:33:55;;;;;;;19.25;13.10;;;;;;;18.06;100.00;100482.31;4998078;28;20045;-71
2023/04/23 08:36:21;;;;;;;21.30;12.48;;;;;;;17.68;100.00;100480.75;5025617;28;20041;-71
2023/04/23 08:38:47;;;;;;;13.20;10.70;;;;;;;17.60;100.00;100486.03;5014529;28;20034;-71
2023/04/23 08:41:17;;;;;;;17.75;11.52;;;;;;;17.84;100.00;100486.34;5006971;28;20703;-71
2023/04/23 08:44:14;;;;;;;15.30;10.73;;;;;;;17.77;100.00;100485.25;5003669;28;20069;-71
2023/04/23 08:46:42;;;;;;;17.58;10.52;;;;;;;17.50;100.00;100483.38;5015586;28;20042;-72
2023/04/23 08:49:13;;;;;;;12.80;10.07;;;;;;;18.05;100.00;100485.19;5019766;28;20034;-72
2023/04/23 08:51:44;;;;;;;15.93;11.35;;;;;;;17.92;100.00;100484.69;5005127;28;20140;-71
2023/04/23 08:54:15;;;;;;;13.10;9.45;;;;;;;18.08;96.66;100479.50;5019450;28;20045;-71
2023/04/23 08:56:41;;;;;;;15.02;8.85;;;;;;;17.84;95.67;100480.09;5004284;28;20045;-72
2023/04/23 08:59:07;;;;;;;22.27;10.20;;;;;;;18.14;100.00;100478.88;5023370;28;20053;-71
2023/04/23 09:01:33;;;;;;;18.83;9.38;;;;;;;18.35;98.00;100481.22;5023107;28;20737;-71
2023/04/23 09:04:00;;;;;;;15.07;9.63;;;;;;;18.25;96.07;100470.50;5027523;28;20037;-72
2023/04/23 09:06:25;;;;;;;16.25;8.80;;;;;;;17.84;93.90;100475.53;5025479;28;20448;-71
2023/04/23 09:08:52;;;;;;;15.27;8.18;;;;;;;17.92;93.67;100472.06;5028968;28;20849;-71
2023/04/23 09:11:18;;;;;;;13.43;8.63;;;;;;;17.83;91.12;100471.16;4998396;28;20038;-72
2023/04/23 09:13:44;;;;;;;16.63;9.43;;;;;;;17.89;97.16;100467.00;5021160;28;20033;-71
2023/04/23 09:16:10;;;;;;;20.67;10.10;;;;;;;18.09;97.69;100468.53;5009717;28;20053;-71
2023/04/23 09:18:36;;;;;;;17.20;8.52;;;;;;;18.20;93.65;100472.84;5013238;28;20614;-71
2023/04/23 09:21:03;;;;;;;13.35;8.15;;;;;;;18.53;94.59;100465.00;5028222;28;20146;-71
2023/04/23 09:23:30;;;;;;;18.17;9.52;;;;;;;18.24;94.32;100455.34;5024310;28;20037;-71
2023/04/23 09:25:56;;;;;;;12.45;7.35;;;;;;;18.05;88.18;100461.75;5022788;28;20045;-71
2023/04/23 09:28:37;;;;;;;11.52;7.38;;;;;;;18.30;87.14;100460.09;5019909;28;20045;-71
2023/04/23 09:31:05;;;;;;;17.67;8.25;;;;;;;18.60;89.29;100464.19;5022764;28;20483;-71
2023/04/23 09:33:35;;;;;;;16.98;6.47;;;;;;;18.60;85.13;100452.56;5016289;28;20574;-71
2023/04/23 09:36:09;;;;;;;17.20;7.35;;;;;;;18.37;83.91;100444.97;5000708;28;20038;-71
2023/04/23 09:38:35;;;;;;;15.20;6.55;;;;;;;18.60;86.05;100450.69;5013329;28;20025;-71
2023/04/23 09:41:24;;;;;;;12.50;6.63;;;;;;;18.87;85.22;100448.84;5021083;28;20066;-71
2023/04/23 09:43:52;;;;;;;13.32;5.93;;;;;;;19.24;79.99;100450.41;5024329;28;20034;-71
2023/04/23 09:46:17;;;;;;;10.80;5.05;;;;;;;18.84;76.87;100444.63;5011267;28;20061;-71
2023/04/23 09:48:43;;;;;;;12.40;4.60;;;;;;;18.91;78.84;100443.97;5010693;28;20034;-71
2023/04/23 09:51:13;;;;;;;12.20;5.00;;;;;;;19.29;77.23;100445.34;5020591;28;20116;-71
2023/04/23 09:53:42;;;;;;;11.75;5.22;;;;;;;18.92;78.35;100443.81;5010095;28;20113;-71
2023/04/23 09:56:08;;;;;;;9.93;4.38;;;;;;;18.78;73.30;100437.19;5005324;28;20056;-70
2023/04/23 09:58:33;;;;;;;14.48;5.13;;;;;;;19.20;73.98;100433.66;4987217;28;20041;-70
2023/04/23 10:01:06;;;;;;;10.68;4.38;;;;;;;19.44;74.41;100432.06;5015070;28;20057;-70
2023/04/23 10:03:32;;;;;;;9.00;4.65;;;;;;;19.53;74.55;100439.16;5001129;28;20075;-70
2023/04/23 10:05:58;;;;;;;10.05;4.75;;;;;;;19.75;74.10;100435.03;5019627;28;20033;-70
2023/04/23 10:08:24;;;;;;;7.60;3.42;;;;;;;19.97;70.64;100431.66;5015293;28;20037;-70
2023/04/23 10:10:50;;;;;;;13.70;3.92;;;;;;;19.77;68.44;100428.41;5006641;28;20530;-71
2023/04/23 10:13:17;;;;;;;10.00;4.07;;;;;;;19.18;68.39;100437.50;5003887;28;20033;-70
2023/04/23 10:15:45;;;;;;;11.18;4.00;;;;;;;19.21;69.23;100437.19;5021502;28;20030;-70
2023/04/23 10:18:13;;;;;;;11.85;4.10;;;;;;;19.59;69.25;100427.69;5012095;28;20041;-70
2023/04/23 10:20:40;;;;;;;13.15;4.05;;;;;;;19.61;68.10;100431.94;5019940;28;20057;-70
2023/04/23 10:23:08;;;;;;;11.80;3.33;;;;;;;19.41;68.38;100431.34;5015369;28;20030;-70
2023/04/23 10:25:38;;;;;;;11.43;3.53;;;;;;;19.29;67.67;100429.97;5013982;28;20123;-70
2023/04/23 10:28:06;;;;;;;14.13;3.47;;;;;;;19.21;70.97;100432.63;5021428;28;20498;-70
2023/04/23 10:30:32;;;;;;;11.80;3.55;;;;;;;19.47;67.25;100421.72;5019144;28;20034;-70
2023/04/23 10:33:00;;;;;;;14.27;3.15;;;;;;;19.48;67.87;100420.75;5018446;28;20801;-70
2023/04/23 10:35:26;;;;;;;13.65;3.22;;;;;;;19.86;69.63;100423.88;5016084;28;20049;-70
2023/04/23 10:37:52;;;;;;;11.00;2.53;;;;;;;19.48;66.77;100426.16;5015693;28;20033;-70
2023/04/23 10:40:23;;;;;;;8.00;2.33;;;;;;;19.44;66.08;100421.22;5015628;28;20038;-70
2023/04/23 10:42:50;;;;;;;9.90;2.80;;;;;;;19.95;64.76;100414.75;5019761;28;20041;-70
2023/04/23 10:45:20;;;;;;;7.32;2.60;;;;;;;20.16;62.43;100406.97;5012252;28;20065;-71
2023/04/23 10:47:46;;;;;;;11.65;2.60;;;;;;;19.98;61.32;100406.31;5014933;28;20060;-70
2023/04/23 10:50:19;;;;;;;9.80;2.30;;;;;;;20.36;62.43;100412.88;5009507;28;20121;-70
2023/04/23 10:52:50;;;;;;;10.25;2.63;;;;;;;20.15;60.89;100409.84;5006125;28;20037;-71
2023/04/23 10:55:17;;;;;;;12.40;2.95;;;;;;;19.99;59.18;100407.16;4995076;28;20115;-70
2023/04/23 10:58:00;;;;;;;11.50;3.00;;;;;;;19.68;58.79;100399.69;4999532;28;20042;-70
2023/04/23 11:00:26;;;;;;;;;;;;;;;19.75;58.12;100392.56;5019179;28;20149;-70
2023/04/23 11:02:52;;;;;;;5.15;2.05;;;;;;;19.80;58.99;100390.22;5014188;28;19925;-70